logo
Search for airport 
image banner adimage banner adimage banner ad
image banner ad

LODW - Lkh Sudsteiermark, Standort Wagna Lkh

Located in District Leibnitz, Austria

ICAO - , IATA -

Data provided by Airmate  

General information

Coordinates: N46°46'10" E15°33'31"
Elevation is 880 feet MSL.
 
View others Airports in Styria

Operational data

Special qualification required
Current time UTC:
Current local time:
Weather at : LOWG - Graz ( 26 km )
METAR: LOWG 150750Z AUTO VRB01KT 9999 NCD 18/11 Q1010 NOSIG
TAF: TAF LOWG 150515Z 1506/1606 VRB04KT CAVOK TX24/1512Z TN11/1606Z BECMG 1512/1514 20010KT FEW060CB PROB30 TEMPO 1516/1518 01015G30KT 4000 +TSRA TEMPO 1518/1521 02015G30KT 4000 +TSRA TEMPO 1521/1604 02008KT SHRA TEMPO 1604/1606 35015KT RA
View NOTAMs / SUP AIP / TFR affecting this airport [VIEW]
Communications frequencies: [VIEW]

Runways:

Airport contact information

Address: District Leibnitz Austria

Satellite view of LODW